createdAt,value
2023-12-03T00:00:13.102Z,10.98
2023-12-03T00:02:16.446Z,13.68
2023-12-03T00:04:19.732Z,6.78
2023-12-03T00:06:23.044Z,11.75
2023-12-03T00:08:32.250Z,12.68
2023-12-03T00:10:42.699Z,13.00
2023-12-03T00:12:47.164Z,12.65
2023-12-03T00:14:50.787Z,13.45
2023-12-03T00:16:53.701Z,10.00
2023-12-03T00:18:56.765Z,10.02
2023-12-03T00:21:00.021Z,10.50
2023-12-03T00:23:04.531Z,10.88
2023-12-03T00:25:08.295Z,10.52
2023-12-03T00:27:11.333Z,11.07
2023-12-03T00:29:15.691Z,10.10
2023-12-03T00:31:18.817Z,10.65
2023-12-03T00:33:21.799Z,10.75
2023-12-03T00:35:24.873Z,9.27
2023-12-03T00:37:28.165Z,10.52
2023-12-03T00:39:31.944Z,9.55
2023-12-03T00:41:34.891Z,9.00
2023-12-03T00:43:38.247Z,11.77
2023-12-03T00:45:42.762Z,8.32
2023-12-03T00:47:45.820Z,8.53
2023-12-03T00:49:48.799Z,9.63
2023-12-03T00:51:52.049Z,9.30
2023-12-03T00:53:54.922Z,8.70
2023-12-03T00:55:58.075Z,9.05
2023-12-03T00:58:01.071Z,9.63
2023-12-03T01:00:04.446Z,7.90
2023-12-03T01:02:09.144Z,8.40
2023-12-03T01:04:12.340Z,8.52
2023-12-03T01:06:15.321Z,7.43
2023-12-03T01:08:18.534Z,10.05
2023-12-03T01:10:21.628Z,10.00
2023-12-03T01:12:24.592Z,8.60
2023-12-03T01:14:27.868Z,7.53
2023-12-03T01:16:31.090Z,9.60
2023-12-03T01:18:35.500Z,8.52
2023-12-03T01:20:38.577Z,8.77
2023-12-03T01:22:41.480Z,7.72
2023-12-03T01:24:44.559Z,9.07
2023-12-03T01:26:47.566Z,7.72
2023-12-03T01:28:50.774Z,4.78
2023-12-03T01:30:53.995Z,7.95
2023-12-03T01:32:57.151Z,10.35
2023-12-03T01:35:01.593Z,10.90
2023-12-03T01:37:04.807Z,10.40
2023-12-03T01:39:08.072Z,11.20
2023-12-03T01:41:11.015Z,10.60
2023-12-03T01:43:13.880Z,7.45
2023-12-03T01:45:17.151Z,7.63
2023-12-03T01:47:21.094Z,9.10
2023-12-03T01:49:24.268Z,8.13
2023-12-03T01:51:29.467Z,9.52
2023-12-03T01:53:32.925Z,7.40
2023-12-03T01:55:36.908Z,6.35
2023-12-03T01:57:40.610Z,7.85
2023-12-03T01:59:43.745Z,6.65
2023-12-03T02:01:47.030Z,6.65
2023-12-03T02:03:50.275Z,3.78
2023-12-03T02:06:03.698Z,6.30
2023-12-03T02:08:08.242Z,7.75
2023-12-03T02:10:11.441Z,7.00
2023-12-03T02:12:14.823Z,6.97
2023-12-03T02:14:17.858Z,8.13
2023-12-03T02:16:20.794Z,7.03
2023-12-03T02:18:24.504Z,5.72
2023-12-03T02:20:27.634Z,7.13
2023-12-03T02:22:30.571Z,6.78
2023-12-03T02:24:35.905Z,7.43
2023-12-03T02:26:39.133Z,6.13
2023-12-03T02:28:42.024Z,6.35
2023-12-03T02:30:45.641Z,7.25
2023-12-03T02:32:49.649Z,8.23
2023-12-03T02:34:52.656Z,7.50
2023-12-03T02:36:55.617Z,6.60
2023-12-03T02:38:58.807Z,7.57
2023-12-03T02:41:03.438Z,6.00
2023-12-03T02:43:06.476Z,6.90
2023-12-03T02:45:11.006Z,6.82
2023-12-03T02:47:14.056Z,7.80
2023-12-03T02:49:17.121Z,5.60
2023-12-03T02:51:20.390Z,6.55
2023-12-03T02:53:23.339Z,6.55
2023-12-03T02:55:26.308Z,6.35
2023-12-03T02:57:30.758Z,4.47
2023-12-03T02:59:33.777Z,7.30
2023-12-03T03:01:37.095Z,6.88
2023-12-03T03:03:40.197Z,6.18
2023-12-03T03:05:43.351Z,6.60
2023-12-03T03:07:46.506Z,6.57
2023-12-03T03:09:49.330Z,6.80
2023-12-03T03:11:53.534Z,7.45
2023-12-03T03:13:57.966Z,6.88
2023-12-03T03:16:01.693Z,7.05
2023-12-03T03:18:04.743Z,6.03
2023-12-03T03:20:09.624Z,6.50
2023-12-03T03:22:13.286Z,6.68
2023-12-03T03:24:16.234Z,6.30
2023-12-03T03:26:19.257Z,5.38
2023-12-03T03:28:23.817Z,5.65
2023-12-03T03:30:28.191Z,4.70
2023-12-03T03:32:31.226Z,5.45
2023-12-03T03:34:34.321Z,5.72
2023-12-03T03:36:37.321Z,6.78
2023-12-03T03:38:40.761Z,6.55
2023-12-03T03:40:43.806Z,5.47
2023-12-03T03:42:46.768Z,7.10
2023-12-03T03:44:50.846Z,6.38
2023-12-03T03:46:55.468Z,7.10
2023-12-03T03:48:58.882Z,7.97
2023-12-03T03:51:01.746Z,10.40
2023-12-03T03:53:04.642Z,11.13
2023-12-03T03:55:08.255Z,11.20
2023-12-03T03:57:11.220Z,10.52
2023-12-03T03:59:14.468Z,8.90
2023-12-03T04:01:18.628Z,9.55
2023-12-03T04:03:23.217Z,9.18
2023-12-03T04:05:26.635Z,10.33
2023-12-03T04:07:29.922Z,10.45
2023-12-03T04:09:33.413Z,12.95
2023-12-03T04:11:40.947Z,17.50
2023-12-03T04:13:43.950Z,19.15
2023-12-03T04:15:47.121Z,16.15
2023-12-03T04:17:50.190Z,14.48
2023-12-03T04:19:54.597Z,11.43
2023-12-03T04:21:57.521Z,10.15
2023-12-03T04:24:00.566Z,9.63
2023-12-03T04:26:03.577Z,10.35
2023-12-03T04:28:07.978Z,10.80
2023-12-03T04:30:12.276Z,8.88
2023-12-03T04:32:15.188Z,9.70
2023-12-03T04:34:18.177Z,10.00
2023-12-03T04:36:24.434Z,11.98
2023-12-03T04:38:27.409Z,10.98
2023-12-03T04:40:30.328Z,11.35
2023-12-03T04:42:33.453Z,11.45
2023-12-03T04:44:36.513Z,10.10
2023-12-03T04:46:42.721Z,10.07
2023-12-03T04:48:45.864Z,9.93
2023-12-03T04:50:49.313Z,9.43
2023-12-03T04:52:53.798Z,8.85
2023-12-03T04:54:56.824Z,10.00
2023-12-03T04:56:59.974Z,10.98
2023-12-03T04:59:03.275Z,14.63
2023-12-03T05:01:06.585Z,15.98
2023-12-03T05:03:10.012Z,14.13
2023-12-03T05:05:13.126Z,12.88
2023-12-03T05:07:16.938Z,9.85
2023-12-03T05:09:21.497Z,9.07
2023-12-03T05:11:24.682Z,8.43
2023-12-03T05:13:27.527Z,8.35
2023-12-03T05:15:30.733Z,8.07
2023-12-03T05:17:33.981Z,7.28
2023-12-03T05:19:37.048Z,7.80
2023-12-03T05:21:39.978Z,8.52
2023-12-03T05:23:43.084Z,9.05
2023-12-03T05:25:48.643Z,9.32
2023-12-03T05:27:52.243Z,9.10
2023-12-03T05:29:55.314Z,9.65
2023-12-03T05:31:58.278Z,11.13
2023-12-03T05:34:01.258Z,10.63
2023-12-03T05:36:05.219Z,8.57
2023-12-03T05:38:08.248Z,7.65
2023-12-03T05:40:11.800Z,9.88
2023-12-03T05:42:16.468Z,10.65
2023-12-03T05:44:19.645Z,10.35
2023-12-03T05:46:22.682Z,8.82
2023-12-03T05:48:25.776Z,9.38
2023-12-03T05:50:28.847Z,10.07
2023-12-03T05:52:32.137Z,8.85
2023-12-03T05:54:35.301Z,8.38
2023-12-03T05:56:38.343Z,7.70
2023-12-03T05:58:42.662Z,8.73
2023-12-03T06:00:45.678Z,7.40
2023-12-03T06:02:48.618Z,7.45
2023-12-03T06:04:51.690Z,7.40
2023-12-03T06:06:54.801Z,6.68
2023-12-03T06:08:57.857Z,7.25
2023-12-03T06:11:01.197Z,7.93
2023-12-03T06:13:04.155Z,6.93
2023-12-03T06:15:10.463Z,7.25
2023-12-03T06:17:13.536Z,7.50
2023-12-03T06:19:16.553Z,7.13
2023-12-03T06:21:19.854Z,7.35
2023-12-03T06:23:22.848Z,8.93
2023-12-03T06:25:25.898Z,8.20
2023-12-03T06:27:28.902Z,8.73
2023-12-03T06:29:32.075Z,7.72
2023-12-03T06:31:36.483Z,8.93
2023-12-03T06:33:39.734Z,8.20
2023-12-03T06:35:42.796Z,9.20
2023-12-03T06:37:45.808Z,9.30
2023-12-03T06:39:49.236Z,8.77
2023-12-03T06:41:52.391Z,9.82
2023-12-03T06:43:55.269Z,10.35
2023-12-03T06:46:00.563Z,9.70
2023-12-03T06:48:05.543Z,9.68
2023-12-03T06:50:09.453Z,10.13
2023-12-03T06:52:12.307Z,8.38
2023-12-03T06:54:15.385Z,9.82
2023-12-03T06:56:18.307Z,10.10
2023-12-03T06:58:21.289Z,8.90
2023-12-03T07:00:27.063Z,8.18
2023-12-03T07:02:30.089Z,7.85
2023-12-03T07:04:34.440Z,4.47
2023-12-03T07:06:37.647Z,6.65
2023-12-03T07:08:40.560Z,9.27
2023-12-03T07:10:43.674Z,8.40
2023-12-03T07:12:46.955Z,8.63
2023-12-03T07:14:50.177Z,8.57
2023-12-03T07:16:53.136Z,8.75
2023-12-03T07:18:56.704Z,9.57
2023-12-03T07:21:01.101Z,9.02
2023-12-03T07:23:04.063Z,9.18
2023-12-03T07:25:09.083Z,8.52
2023-12-03T07:27:12.037Z,6.28
2023-12-03T07:29:14.983Z,6.93
2023-12-03T07:31:18.118Z,1.48
2023-12-03T07:33:21.152Z,6.18
2023-12-03T07:35:24.289Z,7.28
2023-12-03T07:37:28.672Z,4.55
2023-12-03T07:39:31.728Z,7.13
2023-12-03T07:41:34.703Z,8.00
2023-12-03T07:43:37.914Z,6.55
2023-12-03T07:45:40.784Z,4.80
2023-12-03T07:47:44.379Z,7.68
2023-12-03T07:49:47.387Z,5.50
2023-12-03T07:51:50.706Z,6.82
2023-12-03T07:53:55.267Z,5.32
2023-12-03T07:55:58.472Z,7.82
2023-12-03T07:58:01.454Z,4.80
2023-12-03T08:00:06.597Z,9.00
2023-12-03T08:02:15.537Z,10.65
2023-12-03T08:04:18.685Z,11.93
2023-12-03T08:06:21.679Z,10.93
2023-12-03T08:08:24.746Z,10.82
2023-12-03T08:10:29.139Z,8.02
2023-12-03T08:12:32.179Z,12.10
2023-12-03T08:14:35.206Z,15.73
2023-12-03T08:16:38.374Z,5.07
2023-12-03T08:18:41.490Z,11.55
2023-12-03T08:20:44.637Z,11.60
2023-12-03T08:22:47.752Z,10.52
2023-12-03T08:24:54.111Z,10.10
2023-12-03T08:26:58.563Z,8.93
2023-12-03T08:29:01.996Z,6.97
2023-12-03T08:31:05.543Z,6.85
2023-12-03T08:33:08.800Z,6.30
2023-12-03T08:35:12.078Z,7.57
2023-12-03T08:37:15.389Z,8.77
2023-12-03T08:39:18.287Z,7.45
2023-12-03T08:41:21.365Z,6.38
2023-12-03T08:43:25.741Z,8.77
2023-12-03T08:45:29.391Z,7.60
2023-12-03T08:47:32.481Z,9.07
2023-12-03T08:49:35.537Z,8.48
2023-12-03T08:51:40.114Z,8.73
2023-12-03T08:53:43.312Z,9.93
2023-12-03T08:55:46.278Z,8.55
2023-12-03T08:57:50.231Z,9.75
2023-12-03T08:59:54.746Z,7.95
2023-12-03T09:01:58.552Z,8.75
2023-12-03T09:04:01.536Z,9.68
2023-12-03T09:06:04.923Z,7.93
2023-12-03T09:08:07.907Z,9.38
2023-12-03T09:10:11.091Z,10.55
2023-12-03T09:12:15.772Z,4.95
2023-12-03T09:14:19.780Z,9.48
2023-12-03T09:16:24.568Z,10.00
2023-12-03T09:18:28.287Z,8.90
2023-12-03T09:20:31.426Z,8.63
2023-12-03T09:22:34.978Z,6.07
2023-12-03T09:24:37.937Z,3.75
2023-12-03T09:26:43.481Z,8.63
2023-12-03T09:28:46.923Z,6.60
2023-12-03T09:30:49.867Z,4.35
2023-12-03T09:32:55.098Z,6.70
2023-12-03T09:34:58.190Z,5.82
2023-12-03T09:37:02.534Z,5.72
2023-12-03T09:39:09.228Z,6.37
2023-12-03T09:41:17.184Z,5.80
2023-12-03T09:43:21.968Z,8.50
2023-12-03T09:45:28.523Z,7.83
2023-12-03T09:47:36.484Z,7.63
2023-12-03T09:49:47.097Z,7.28
2023-12-03T09:51:51.068Z,6.88
2023-12-03T09:53:57.890Z,8.52
2023-12-03T09:56:01.366Z,4.28
2023-12-03T09:58:04.743Z,8.32
2023-12-03T10:00:09.141Z,9.10
2023-12-03T10:02:16.105Z,8.23
2023-12-03T10:04:19.347Z,7.82
2023-12-03T10:06:24.338Z,7.28
2023-12-03T10:08:30.373Z,9.23
2023-12-03T10:10:36.101Z,10.73
2023-12-03T10:12:44.550Z,9.43
2023-12-03T10:14:47.984Z,7.72
2023-12-03T10:16:51.383Z,6.53
2023-12-03T10:18:54.539Z,9.27
2023-12-03T10:21:07.923Z,8.55
2023-12-03T10:23:17.401Z,7.38
2023-12-03T10:25:31.018Z,2.85
2023-12-03T10:27:34.234Z,5.18
2023-12-03T10:29:39.107Z,6.82
2023-12-03T10:31:42.114Z,9.65
2023-12-03T10:33:45.572Z,8.52
2023-12-03T10:35:48.727Z,9.77
2023-12-03T10:37:52.491Z,11.30
2023-12-03T10:39:58.170Z,9.38
2023-12-03T10:42:01.262Z,6.35
2023-12-03T10:44:04.430Z,8.52
2023-12-03T10:46:09.849Z,7.65
2023-12-03T10:48:13.076Z,11.13
2023-12-03T10:50:16.210Z,7.53
2023-12-03T10:52:20.440Z,7.15
2023-12-03T10:54:23.811Z,8.10
2023-12-03T10:56:29.830Z,10.70
2023-12-03T10:58:34.751Z,6.72
2023-12-03T11:00:41.402Z,10.38
2023-12-03T11:02:49.551Z,13.80
2023-12-03T11:05:00.355Z,14.15
2023-12-03T11:07:06.205Z,10.95
2023-12-03T11:09:09.516Z,5.97
2023-12-03T11:11:14.015Z,12.95
2023-12-03T11:13:22.736Z,14.10
2023-12-03T11:15:29.602Z,14.52
2023-12-03T11:17:39.227Z,11.13
2023-12-03T11:19:50.501Z,7.65
2023-12-03T11:22:06.874Z,11.65
2023-12-03T11:24:49.900Z,11.60
2023-12-03T11:26:53.118Z,9.32
2023-12-03T11:29:01.110Z,7.18
2023-12-03T11:31:04.416Z,9.07
2023-12-03T11:33:09.751Z,5.47
2023-12-03T11:35:16.387Z,7.95
2023-12-03T11:37:22.667Z,5.32
2023-12-03T11:39:25.876Z,6.65
2023-12-03T11:41:40.094Z,5.90
2023-12-03T11:43:44.379Z,7.95
2023-12-03T11:45:50.051Z,9.55
2023-12-03T11:48:10.025Z,8.57
2023-12-03T11:50:17.620Z,6.47
2023-12-03T11:52:22.195Z,10.27
2023-12-03T11:54:27.325Z,11.60
2023-12-03T11:56:31.126Z,8.13
2023-12-03T11:58:34.816Z,7.85
2023-12-03T12:00:40.028Z,9.45
2023-12-03T12:02:44.813Z,10.85
2023-12-03T12:04:48.037Z,12.20
2023-12-03T12:06:52.442Z,12.07
2023-12-03T12:08:57.855Z,14.03
2023-12-03T12:11:00.844Z,9.93
2023-12-03T12:13:05.896Z,11.00
2023-12-03T12:15:09.891Z,12.25
2023-12-03T12:17:13.376Z,22.67
2023-12-03T12:19:18.093Z,10.18
2023-12-03T12:21:23.002Z,10.13
2023-12-03T12:23:26.568Z,10.63
2023-12-03T12:25:30.288Z,11.70
2023-12-03T12:27:33.297Z,11.55
2023-12-03T12:29:36.393Z,7.63
2023-12-03T12:31:39.514Z,14.05
2023-12-03T12:33:42.757Z,13.57
2023-12-03T12:35:51.895Z,16.55
2023-12-03T12:38:01.890Z,10.70
2023-12-03T12:40:10.260Z,9.85
2023-12-03T12:42:24.609Z,13.80
2023-12-03T12:44:46.385Z,14.75
2023-12-03T12:46:54.188Z,23.58
2023-12-03T12:49:15.654Z,23.90
2023-12-03T12:51:24.976Z,28.75
2023-12-03T12:53:48.448Z,63.53
2023-12-03T12:55:52.099Z,50.53
2023-12-03T12:57:55.906Z,41.40
2023-12-03T12:59:58.961Z,32.28
2023-12-03T13:02:01.984Z,32.88
2023-12-03T13:04:07.097Z,40.47
2023-12-03T13:06:12.023Z,39.22
2023-12-03T13:08:16.537Z,28.77
2023-12-03T13:10:19.805Z,36.65
2023-12-03T13:12:22.891Z,32.85
2023-12-03T13:14:25.751Z,27.05
2023-12-03T13:16:30.017Z,25.38
2023-12-03T13:18:33.290Z,32.67
2023-12-03T13:20:37.523Z,27.42
2023-12-03T13:22:40.448Z,24.55
2023-12-03T13:24:44.903Z,23.65
2023-12-03T13:26:48.618Z,34.88
2023-12-03T13:28:51.758Z,23.70
2023-12-03T13:30:55.141Z,22.00
2023-12-03T13:33:00.207Z,19.75
2023-12-03T13:35:06.244Z,28.90
2023-12-03T13:37:09.613Z,27.58
2023-12-03T13:39:12.591Z,30.10
2023-12-03T13:41:17.737Z,33.97
2023-12-03T13:43:20.854Z,41.55
2023-12-03T13:45:24.535Z,38.15
2023-12-03T13:47:27.652Z,43.05
2023-12-03T13:49:30.889Z,44.40
2023-12-03T13:51:34.189Z,51.45
2023-12-03T13:53:37.740Z,57.67
2023-12-03T13:55:40.618Z,47.13
2023-12-03T13:57:45.176Z,47.92
2023-12-03T14:01:51.238Z,45.72
2023-12-03T14:03:54.187Z,45.30
2023-12-03T14:05:57.383Z,68.25
2023-12-03T14:08:00.444Z,38.03
2023-12-03T14:10:03.402Z,26.20
2023-12-03T14:12:06.732Z,21.13
2023-12-03T14:14:11.925Z,19.40
2023-12-03T14:16:16.133Z,23.23
2023-12-03T14:18:19.408Z,23.33
2023-12-03T14:20:22.444Z,25.13
2023-12-03T14:22:25.637Z,24.48
2023-12-03T14:24:28.630Z,24.10
2023-12-03T14:26:31.604Z,25.60
2023-12-03T14:28:38.084Z,22.95
2023-12-03T14:30:44.007Z,22.45
2023-12-03T14:32:48.165Z,21.05
2023-12-03T14:34:51.110Z,24.13
2023-12-03T14:36:53.956Z,24.35
2023-12-03T14:38:56.988Z,24.10
2023-12-03T14:40:59.918Z,22.45
2023-12-03T14:43:02.907Z,20.38
2023-12-03T14:45:06.853Z,18.92
2023-12-03T14:47:11.351Z,19.88
2023-12-03T14:49:14.317Z,19.80
2023-12-03T14:51:17.793Z,15.07
2023-12-03T14:53:21.183Z,15.63
2023-12-03T14:55:24.291Z,14.55
2023-12-03T14:57:27.613Z,17.33
2023-12-03T14:59:30.613Z,16.33
2023-12-03T15:01:34.780Z,14.70
2023-12-03T15:03:40.426Z,15.73
2023-12-03T15:07:46.633Z,15.73
2023-12-03T15:09:52.574Z,16.63
2023-12-03T15:13:58.146Z,13.98
2023-12-03T15:16:01.280Z,13.88
2023-12-03T15:18:04.524Z,15.25
2023-12-03T15:20:10.286Z,16.05
2023-12-03T15:22:13.409Z,13.43
2023-12-03T15:24:16.510Z,14.95
2023-12-03T15:26:19.427Z,14.90
2023-12-03T15:28:22.582Z,18.08
2023-12-03T15:30:27.793Z,17.58
2023-12-03T15:32:33.495Z,25.88
2023-12-03T15:34:36.510Z,35.70
2023-12-03T15:36:41.021Z,25.00
2023-12-03T15:38:43.974Z,39.00
2023-12-03T15:40:47.081Z,27.30
2023-12-03T15:42:55.938Z,30.17
2023-12-03T15:44:59.119Z,19.77
2023-12-03T15:47:02.123Z,22.95
2023-12-03T15:49:09.794Z,21.73
2023-12-03T15:51:16.852Z,25.05
2023-12-03T15:53:21.306Z,28.55
2023-12-03T15:55:24.861Z,28.90
2023-12-03T15:57:28.051Z,31.83
2023-12-03T15:59:31.016Z,48.00
2023-12-03T16:01:34.025Z,43.47
2023-12-03T16:03:37.382Z,47.63
2023-12-03T16:05:40.431Z,44.72
2023-12-03T16:07:46.979Z,43.00
2023-12-03T16:09:51.475Z,47.13
2023-12-03T16:11:55.366Z,47.90
2023-12-03T16:13:58.448Z,41.30
2023-12-03T16:16:03.677Z,43.42
2023-12-03T16:18:06.891Z,23.27
2023-12-03T16:20:10.441Z,21.05
2023-12-03T16:22:13.499Z,21.40
2023-12-03T16:24:16.572Z,31.10
2023-12-03T16:26:21.122Z,30.88
2023-12-03T16:28:24.114Z,24.27
2023-12-03T16:30:27.259Z,24.65
2023-12-03T16:32:30.245Z,30.73
2023-12-03T16:34:33.422Z,30.30
2023-12-03T16:36:36.987Z,34.25
2023-12-03T16:38:39.987Z,36.38
2023-12-03T16:40:44.041Z,44.55
2023-12-03T16:42:48.458Z,41.85
2023-12-03T16:44:52.477Z,41.53
2023-12-03T16:46:55.558Z,50.33
2023-12-03T16:48:59.373Z,45.13
2023-12-03T16:51:03.025Z,64.97
2023-12-03T16:53:06.528Z,76.75
2023-12-03T16:55:10.063Z,85.28
2023-12-03T16:57:13.870Z,81.03
2023-12-03T16:59:20.349Z,80.93
2023-12-03T17:01:23.365Z,89.32
2023-12-03T17:03:26.381Z,102.13
2023-12-03T17:05:29.868Z,92.72
2023-12-03T17:07:33.640Z,80.68
2023-12-03T17:09:37.566Z,77.72
2023-12-03T17:11:40.830Z,82.45
2023-12-03T17:13:43.994Z,85.68
2023-12-03T17:15:49.116Z,81.93
2023-12-03T17:17:52.023Z,65.93
2023-12-03T17:19:55.106Z,71.72
2023-12-03T17:21:59.330Z,75.57
2023-12-03T17:24:02.683Z,67.35
2023-12-03T17:26:08.390Z,52.42
2023-12-03T17:30:14.248Z,30.50
2023-12-03T17:32:18.736Z,22.13
2023-12-03T17:34:21.817Z,29.92
2023-12-03T17:36:24.930Z,41.92
2023-12-03T17:38:28.318Z,43.22
2023-12-03T17:40:31.473Z,36.08
2023-12-03T17:42:34.991Z,23.42
2023-12-03T17:44:37.945Z,24.30
2023-12-03T17:46:40.945Z,21.13
2023-12-03T17:48:46.383Z,20.70
2023-12-03T17:50:49.507Z,22.75
2023-12-03T17:52:52.528Z,26.33
2023-12-03T17:54:55.499Z,29.55
2023-12-03T17:56:58.497Z,23.17
2023-12-03T17:59:01.506Z,19.55
2023-12-03T18:01:04.994Z,20.27
2023-12-03T18:03:11.528Z,20.05
2023-12-03T18:05:16.202Z,17.65
2023-12-03T18:07:19.125Z,20.25
2023-12-03T18:09:22.136Z,24.58
2023-12-03T18:11:25.531Z,25.08
2023-12-03T18:13:29.936Z,22.90
2023-12-03T18:15:34.328Z,26.85
2023-12-03T18:17:38.982Z,27.15
2023-12-03T18:19:43.437Z,22.13
2023-12-03T18:21:47.921Z,19.23
2023-12-03T18:23:50.914Z,16.77
2023-12-03T18:25:53.984Z,26.75
2023-12-03T18:27:57.015Z,28.13
2023-12-03T18:30:00.677Z,27.40
2023-12-03T18:32:03.695Z,26.10
2023-12-03T18:34:07.114Z,26.05
2023-12-03T18:36:14.528Z,24.38
2023-12-03T18:38:20.074Z,26.40
2023-12-03T18:40:24.338Z,25.05
2023-12-03T18:42:28.230Z,26.92
2023-12-03T18:44:33.011Z,26.80
2023-12-03T18:46:36.357Z,33.97
2023-12-03T18:48:39.425Z,36.90
2023-12-03T18:50:42.654Z,37.35
2023-12-03T18:52:45.697Z,36.75
2023-12-03T18:54:50.221Z,36.58
2023-12-03T18:56:53.145Z,33.08
2023-12-03T18:58:56.080Z,32.58
2023-12-03T19:00:59.215Z,31.00
2023-12-03T19:03:02.283Z,30.40
2023-12-03T19:05:06.079Z,29.45
2023-12-03T19:07:09.114Z,30.42
2023-12-03T19:09:12.126Z,28.35
2023-12-03T19:11:16.636Z,32.13
2023-12-03T19:13:26.759Z,30.67
2023-12-03T19:15:30.324Z,29.17
2023-12-03T19:17:33.337Z,46.78
2023-12-03T19:19:36.956Z,36.05
2023-12-03T19:23:43.404Z,58.40
2023-12-03T19:25:46.335Z,133.85
2023-12-03T19:27:51.004Z,77.75
2023-12-03T19:29:56.079Z,47.25
2023-12-03T19:31:59.191Z,49.67
2023-12-03T19:34:03.849Z,34.78
2023-12-03T19:36:08.163Z,34.35
2023-12-03T19:38:13.048Z,41.28
2023-12-03T19:40:16.208Z,42.80
2023-12-03T19:42:19.347Z,37.08
2023-12-03T19:44:23.973Z,32.70
2023-12-03T19:46:26.969Z,44.08
2023-12-03T19:48:30.257Z,35.63
2023-12-03T19:50:35.489Z,29.55
2023-12-03T19:52:39.666Z,29.45
2023-12-03T19:54:43.152Z,35.28
2023-12-03T19:56:46.160Z,39.75
2023-12-03T19:58:50.348Z,30.80
2023-12-03T20:00:55.193Z,28.25
2023-12-03T20:02:58.117Z,28.10
2023-12-03T20:05:01.523Z,25.95
2023-12-03T20:07:05.420Z,28.92
2023-12-03T20:09:08.711Z,28.13
2023-12-03T20:11:11.904Z,27.35
2023-12-03T20:13:15.002Z,26.13
2023-12-03T20:15:25.019Z,28.40
2023-12-03T20:17:33.869Z,27.50
2023-12-03T20:19:37.389Z,29.48
2023-12-03T20:21:40.742Z,31.58
2023-12-03T20:23:46.557Z,50.72
2023-12-03T20:25:53.168Z,42.38
2023-12-03T20:27:56.176Z,31.67
2023-12-03T20:29:59.841Z,35.15
2023-12-03T20:32:02.948Z,35.60
2023-12-03T20:34:07.645Z,32.60
2023-12-03T20:36:12.755Z,30.37
2023-12-03T20:38:15.656Z,34.10
2023-12-03T20:40:18.574Z,36.05
2023-12-03T20:42:21.769Z,38.97
2023-12-03T20:44:24.632Z,61.53
2023-12-03T20:46:28.114Z,42.75
2023-12-03T20:48:31.063Z,29.90
2023-12-03T20:50:35.712Z,28.63
2023-12-03T20:52:38.620Z,31.90
2023-12-03T20:54:41.745Z,32.38
2023-12-03T20:56:44.787Z,30.77
2023-12-03T20:58:47.754Z,29.65
2023-12-03T21:00:51.228Z,29.40
2023-12-03T21:02:54.380Z,29.70
2023-12-03T21:04:57.465Z,31.55
2023-12-03T21:07:02.153Z,36.15
2023-12-03T21:09:05.148Z,34.15
2023-12-03T21:11:08.762Z,32.47
2023-12-03T21:13:12.886Z,29.35
2023-12-03T21:15:16.424Z,31.88
2023-12-03T21:17:19.421Z,30.65
2023-12-03T21:19:22.434Z,41.90
2023-12-03T21:21:25.377Z,42.35
2023-12-03T21:23:29.985Z,38.28
2023-12-03T21:25:34.313Z,39.83
2023-12-03T21:27:37.652Z,30.40
2023-12-03T21:29:40.773Z,30.25
2023-12-03T21:31:43.869Z,29.42
2023-12-03T21:33:47.207Z,30.20
2023-12-03T21:35:52.589Z,28.15
2023-12-03T21:37:55.597Z,29.65
2023-12-03T21:40:00.316Z,28.33
2023-12-03T21:42:03.324Z,27.27
2023-12-03T21:44:06.438Z,30.17
2023-12-03T21:46:09.511Z,27.90
2023-12-03T21:48:12.995Z,28.98
2023-12-03T21:50:16.000Z,30.20
2023-12-03T21:52:21.052Z,28.58
2023-12-03T21:54:24.526Z,30.15
2023-12-03T21:56:29.486Z,30.10
2023-12-03T22:00:37.429Z,29.27
2023-12-03T22:02:40.383Z,32.80
2023-12-03T22:04:43.386Z,32.25
2023-12-03T22:06:46.538Z,32.42
2023-12-03T22:08:49.603Z,32.03
2023-12-03T22:10:54.337Z,31.52
2023-12-03T22:12:58.986Z,32.03
2023-12-03T22:15:02.215Z,31.05
2023-12-03T22:17:06.487Z,30.33
2023-12-03T22:19:09.500Z,30.23
2023-12-03T22:21:12.881Z,32.30
2023-12-03T22:23:15.910Z,32.45
2023-12-03T22:25:18.867Z,31.85
2023-12-03T22:27:22.153Z,35.92
2023-12-03T22:29:35.418Z,31.98
2023-12-03T22:31:46.986Z,33.53
2023-12-03T22:33:50.006Z,31.35
2023-12-03T22:35:53.045Z,32.33
2023-12-03T22:37:56.033Z,31.40
2023-12-03T22:39:58.960Z,33.45
2023-12-03T22:42:01.925Z,34.45
2023-12-03T22:44:05.147Z,33.30
2023-12-03T22:46:09.976Z,33.63
2023-12-03T22:48:12.908Z,33.87
2023-12-03T22:50:15.964Z,33.53
2023-12-03T22:52:18.938Z,31.48
2023-12-03T22:54:21.918Z,32.35
2023-12-03T22:56:24.904Z,31.48
2023-12-03T22:58:28.167Z,32.67
2023-12-03T23:00:31.640Z,32.88
2023-12-03T23:02:37.038Z,30.35
2023-12-03T23:04:39.971Z,31.63
2023-12-03T23:06:43.717Z,30.48
2023-12-03T23:08:46.648Z,32.58
2023-12-03T23:10:49.565Z,29.88
2023-12-03T23:12:52.774Z,30.92
2023-12-03T23:14:55.897Z,30.48
2023-12-03T23:16:58.814Z,31.35
2023-12-03T23:19:03.848Z,30.95
2023-12-03T23:21:07.291Z,30.08
2023-12-03T23:23:10.311Z,29.27
2023-12-03T23:25:13.531Z,28.63
2023-12-03T23:27:19.872Z,28.83
2023-12-03T23:29:23.292Z,29.48
2023-12-03T23:31:26.592Z,30.35
2023-12-03T23:33:30.545Z,28.42
2023-12-03T23:35:35.210Z,30.45
2023-12-03T23:37:38.207Z,28.52
2023-12-03T23:39:42.498Z,28.73
2023-12-03T23:41:45.520Z,29.25
2023-12-03T23:43:49.090Z,29.25
2023-12-03T23:45:52.095Z,28.67
2023-12-03T23:47:55.266Z,27.48
2023-12-03T23:49:58.157Z,30.30
2023-12-03T23:52:02.844Z,29.10
2023-12-03T23:54:06.222Z,28.98
2023-12-03T23:56:10.617Z,28.77
2023-12-03T23:58:13.524Z,28.13
